sensor_id;sensor_type;location;lat;lon;timestamp;P1;durP1;ratioP1;P2;durP2;ratioP2
1262;SDS011;62267;50.112;8.704;2023-07-29T00:02:26;10.50;;;9.20;;
1262;SDS011;62267;50.112;8.704;2023-07-29T00:04:56;10.47;;;9.40;;
1262;SDS011;62267;50.112;8.704;2023-07-29T00:07:24;10.87;;;8.53;;
1262;SDS011;62267;50.112;8.704;2023-07-29T00:09:53;12.30;;;9.83;;
1262;SDS011;62267;50.112;8.704;2023-07-29T00:12:21;11.30;;;10.30;;
1262;SDS011;62267;50.112;8.704;2023-07-29T00:14:50;14.60;;;11.63;;
1262;SDS011;62267;50.112;8.704;2023-07-29T00:17:17;11.33;;;10.23;;
1262;SDS011;62267;50.112;8.704;2023-07-29T00:19:46;12.63;;;10.23;;
1262;SDS011;62267;50.112;8.704;2023-07-29T00:22:13;12.40;;;10.73;;
1262;SDS011;62267;50.112;8.704;2023-07-29T00:24:41;14.03;;;10.20;;
1262;SDS011;62267;50.112;8.704;2023-07-29T00:27:09;11.73;;;10.50;;
1262;SDS011;62267;50.112;8.704;2023-07-29T00:29:36;11.80;;;10.57;;
1262;SDS011;62267;50.112;8.704;2023-07-29T00:32:04;10.17;;;9.30;;
1262;SDS011;62267;50.112;8.704;2023-07-29T00:34:31;10.37;;;9.27;;
1262;SDS011;62267;50.112;8.704;2023-07-29T00:36:59;11.07;;;9.97;;
1262;SDS011;62267;50.112;8.704;2023-07-29T00:39:27;10.27;;;9.27;;
1262;SDS011;62267;50.112;8.704;2023-07-29T00:41:56;10.00;;;9.00;;
1262;SDS011;62267;50.112;8.704;2023-07-29T00:44:24;10.13;;;9.13;;
1262;SDS011;62267;50.112;8.704;2023-07-29T00:46:53;9.47;;;8.03;;
1262;SDS011;62267;50.112;8.704;2023-07-29T00:49:21;11.83;;;8.67;;
1262;SDS011;62267;50.112;8.704;2023-07-29T00:51:49;9.40;;;8.60;;
1262;SDS011;62267;50.112;8.704;2023-07-29T00:54:18;9.40;;;8.47;;
1262;SDS011;62267;50.112;8.704;2023-07-29T00:56:45;8.60;;;7.80;;
1262;SDS011;62267;50.112;8.704;2023-07-29T00:59:12;8.90;;;8.07;;
1262;SDS011;62267;50.112;8.704;2023-07-29T01:01:40;8.20;;;7.27;;
1262;SDS011;62267;50.112;8.704;2023-07-29T01:04:08;10.37;;;8.73;;
1262;SDS011;62267;50.112;8.704;2023-07-29T01:06:41;9.10;;;8.13;;
1262;SDS011;62267;50.112;8.704;2023-07-29T01:14:39;9.17;;;7.40;;
1262;SDS011;62267;50.112;8.704;2023-07-29T01:17:09;8.63;;;7.83;;
1262;SDS011;62267;50.112;8.704;2023-07-29T01:19:59;9.53;;;8.23;;
1262;SDS011;62267;50.112;8.704;2023-07-29T01:22:29;10.43;;;9.33;;
1262;SDS011;62267;50.112;8.704;2023-07-29T01:24:58;9.30;;;8.40;;
1262;SDS011;62267;50.112;8.704;2023-07-29T01:27:26;8.63;;;7.73;;
1262;SDS011;62267;50.112;8.704;2023-07-29T01:29:53;9.00;;;8.10;;
1262;SDS011;62267;50.112;8.704;2023-07-29T01:37:35;8.83;;;7.80;;
1262;SDS011;62267;50.112;8.704;2023-07-29T01:40:05;8.83;;;8.03;;
1262;SDS011;62267;50.112;8.704;2023-07-29T01:42:33;7.53;;;6.63;;
1262;SDS011;62267;50.112;8.704;2023-07-29T01:45:01;7.40;;;6.70;;
1262;SDS011;62267;50.112;8.704;2023-07-29T01:47:29;8.20;;;7.40;;
1262;SDS011;62267;50.112;8.704;2023-07-29T01:49:57;7.33;;;6.63;;
1262;SDS011;62267;50.112;8.704;2023-07-29T01:52:25;7.27;;;6.57;;
1262;SDS011;62267;50.112;8.704;2023-07-29T01:54:52;7.03;;;6.43;;
1262;SDS011;62267;50.112;8.704;2023-07-29T01:57:20;7.87;;;7.10;;
1262;SDS011;62267;50.112;8.704;2023-07-29T01:59:47;6.50;;;6.00;;
1262;SDS011;62267;50.112;8.704;2023-07-29T02:02:15;6.87;;;5.87;;
1262;SDS011;62267;50.112;8.704;2023-07-29T02:04:42;6.60;;;6.00;;
1262;SDS011;62267;50.112;8.704;2023-07-29T02:07:11;6.37;;;5.87;;
1262;SDS011;62267;50.112;8.704;2023-07-29T02:09:39;5.80;;;5.30;;
1262;SDS011;62267;50.112;8.704;2023-07-29T02:12:06;6.50;;;5.43;;
1262;SDS011;62267;50.112;8.704;2023-07-29T02:14:36;6.50;;;5.63;;
1262;SDS011;62267;50.112;8.704;2023-07-29T02:17:03;7.40;;;5.70;;
1262;SDS011;62267;50.112;8.704;2023-07-29T02:19:31;6.13;;;5.53;;
1262;SDS011;62267;50.112;8.704;2023-07-29T02:21:58;5.60;;;5.13;;
1262;SDS011;62267;50.112;8.704;2023-07-29T02:24:25;6.10;;;5.50;;
1262;SDS011;62267;50.112;8.704;2023-07-29T02:26:53;6.53;;;6.00;;
1262;SDS011;62267;50.112;8.704;2023-07-29T02:29:20;8.70;;;6.50;;
1262;SDS011;62267;50.112;8.704;2023-07-29T02:31:48;7.80;;;6.57;;
1262;SDS011;62267;50.112;8.704;2023-07-29T02:34:15;6.37;;;5.87;;
1262;SDS011;62267;50.112;8.704;2023-07-29T02:36:43;7.13;;;6.47;;
1262;SDS011;62267;50.112;8.704;2023-07-29T02:39:12;6.13;;;5.53;;
1262;SDS011;62267;50.112;8.704;2023-07-29T02:41:39;6.93;;;6.30;;
1262;SDS011;62267;50.112;8.704;2023-07-29T02:44:06;6.63;;;6.00;;
1262;SDS011;62267;50.112;8.704;2023-07-29T02:46:34;7.43;;;6.83;;
1262;SDS011;62267;50.112;8.704;2023-07-29T02:49:02;6.10;;;5.60;;
1262;SDS011;62267;50.112;8.704;2023-07-29T02:51:30;7.30;;;6.70;;
1262;SDS011;62267;50.112;8.704;2023-07-29T02:53:58;8.57;;;6.53;;
1262;SDS011;62267;50.112;8.704;2023-07-29T02:56:25;7.30;;;6.23;;
1262;SDS011;62267;50.112;8.704;2023-07-29T02:58:53;7.00;;;6.30;;
1262;SDS011;62267;50.112;8.704;2023-07-29T03:01:20;6.03;;;5.40;;
1262;SDS011;62267;50.112;8.704;2023-07-29T03:03:48;8.03;;;6.37;;
1262;SDS011;62267;50.112;8.704;2023-07-29T03:06:15;7.63;;;6.50;;
1262;SDS011;62267;50.112;8.704;2023-07-29T03:08:43;6.43;;;5.80;;
1262;SDS011;62267;50.112;8.704;2023-07-29T03:11:11;6.43;;;5.83;;
1262;SDS011;62267;50.112;8.704;2023-07-29T03:13:39;5.90;;;5.30;;
1262;SDS011;62267;50.112;8.704;2023-07-29T03:16:07;6.17;;;5.50;;
1262;SDS011;62267;50.112;8.704;2023-07-29T03:18:37;6.00;;;5.53;;
1262;SDS011;62267;50.112;8.704;2023-07-29T03:21:04;6.73;;;6.10;;
1262;SDS011;62267;50.112;8.704;2023-07-29T03:23:32;6.47;;;5.80;;
1262;SDS011;62267;50.112;8.704;2023-07-29T03:26:00;5.93;;;5.43;;
1262;SDS011;62267;50.112;8.704;2023-07-29T03:28:32;5.73;;;5.23;;
1262;SDS011;62267;50.112;8.704;2023-07-29T03:30:59;5.03;;;4.73;;
1262;SDS011;62267;50.112;8.704;2023-07-29T03:33:27;5.30;;;4.90;;
1262;SDS011;62267;50.112;8.704;2023-07-29T03:35:55;5.60;;;5.10;;
1262;SDS011;62267;50.112;8.704;2023-07-29T03:38:22;6.90;;;5.13;;
1262;SDS011;62267;50.112;8.704;2023-07-29T03:40:50;5.13;;;4.77;;
1262;SDS011;62267;50.112;8.704;2023-07-29T03:43:17;5.90;;;5.27;;
1262;SDS011;62267;50.112;8.704;2023-07-29T03:45:45;6.43;;;5.83;;
1262;SDS011;62267;50.112;8.704;2023-07-29T03:48:13;5.20;;;4.83;;
1262;SDS011;62267;50.112;8.704;2023-07-29T03:50:40;7.03;;;5.60;;
1262;SDS011;62267;50.112;8.704;2023-07-29T03:53:08;5.93;;;5.33;;
1262;SDS011;62267;50.112;8.704;2023-07-29T03:55:36;5.93;;;5.33;;
1262;SDS011;62267;50.112;8.704;2023-07-29T03:58:04;6.23;;;5.67;;
1262;SDS011;62267;50.112;8.704;2023-07-29T04:00:32;5.50;;;5.10;;
1262;SDS011;62267;50.112;8.704;2023-07-29T04:02:59;5.57;;;5.17;;
1262;SDS011;62267;50.112;8.704;2023-07-29T04:05:27;6.13;;;5.53;;
1262;SDS011;62267;50.112;8.704;2023-07-29T04:07:55;5.90;;;5.10;;
1262;SDS011;62267;50.112;8.704;2023-07-29T04:10:22;5.40;;;5.00;;
1262;SDS011;62267;50.112;8.704;2023-07-29T04:12:49;5.30;;;4.90;;
1262;SDS011;62267;50.112;8.704;2023-07-29T04:15:17;6.00;;;5.40;;
1262;SDS011;62267;50.112;8.704;2023-07-29T04:17:44;6.33;;;5.73;;
1262;SDS011;62267;50.112;8.704;2023-07-29T04:20:11;7.63;;;6.17;;
1262;SDS011;62267;50.112;8.704;2023-07-29T04:22:39;7.43;;;5.33;;
1262;SDS011;62267;50.112;8.704;2023-07-29T04:25:06;6.00;;;5.50;;
1262;SDS011;62267;50.112;8.704;2023-07-29T04:27:34;5.50;;;4.77;;
1262;SDS011;62267;50.112;8.704;2023-07-29T04:30:01;6.13;;;5.53;;
1262;SDS011;62267;50.112;8.704;2023-07-29T04:32:29;5.40;;;4.90;;
1262;SDS011;62267;50.112;8.704;2023-07-29T04:34:56;5.50;;;5.10;;
1262;SDS011;62267;50.112;8.704;2023-07-29T04:37:24;5.63;;;5.13;;
1262;SDS011;62267;50.112;8.704;2023-07-29T04:39:51;4.97;;;4.57;;
1262;SDS011;62267;50.112;8.704;2023-07-29T04:42:18;5.43;;;4.93;;
1262;SDS011;62267;50.112;8.704;2023-07-29T04:44:45;5.27;;;4.50;;
1262;SDS011;62267;50.112;8.704;2023-07-29T04:47:12;6.00;;;5.40;;
1262;SDS011;62267;50.112;8.704;2023-07-29T04:49:41;6.30;;;5.80;;
1262;SDS011;62267;50.112;8.704;2023-07-29T04:52:08;6.13;;;5.63;;
1262;SDS011;62267;50.112;8.704;2023-07-29T04:54:35;8.13;;;5.10;;
1262;SDS011;62267;50.112;8.704;2023-07-29T04:57:02;9.17;;;7.07;;
1262;SDS011;62267;50.112;8.704;2023-07-29T04:59:30;6.10;;;5.50;;
1262;SDS011;62267;50.112;8.704;2023-07-29T05:01:57;6.40;;;5.80;;
1262;SDS011;62267;50.112;8.704;2023-07-29T05:04:24;6.00;;;5.50;;
1262;SDS011;62267;50.112;8.704;2023-07-29T05:06:52;8.27;;;6.00;;
1262;SDS011;62267;50.112;8.704;2023-07-29T05:09:19;6.83;;;5.53;;
1262;SDS011;62267;50.112;8.704;2023-07-29T05:11:47;5.37;;;4.87;;
1262;SDS011;62267;50.112;8.704;2023-07-29T05:14:16;6.70;;;5.87;;
1262;SDS011;62267;50.112;8.704;2023-07-29T05:16:43;6.20;;;5.60;;
1262;SDS011;62267;50.112;8.704;2023-07-29T05:19:11;6.97;;;5.60;;
1262;SDS011;62267;50.112;8.704;2023-07-29T05:21:38;5.50;;;5.00;;
1262;SDS011;62267;50.112;8.704;2023-07-29T05:24:06;7.47;;;5.60;;
1262;SDS011;62267;50.112;8.704;2023-07-29T05:26:33;6.03;;;5.43;;
1262;SDS011;62267;50.112;8.704;2023-07-29T05:29:01;6.03;;;5.10;;
1262;SDS011;62267;50.112;8.704;2023-07-29T05:31:30;6.03;;;5.43;;
1262;SDS011;62267;50.112;8.704;2023-07-29T05:33:58;7.13;;;5.50;;
1262;SDS011;62267;50.112;8.704;2023-07-29T05:36:26;6.40;;;5.80;;
1262;SDS011;62267;50.112;8.704;2023-07-29T05:38:53;9.20;;;5.40;;
1262;SDS011;62267;50.112;8.704;2023-07-29T05:41:20;6.87;;;5.70;;
1262;SDS011;62267;50.112;8.704;2023-07-29T05:43:48;5.40;;;5.00;;
1262;SDS011;62267;50.112;8.704;2023-07-29T05:46:15;6.13;;;5.10;;
1262;SDS011;62267;50.112;8.704;2023-07-29T05:48:43;7.00;;;6.17;;
1262;SDS011;62267;50.112;8.704;2023-07-29T05:51:10;6.53;;;6.03;;
1262;SDS011;62267;50.112;8.704;2023-07-29T05:53:38;7.40;;;6.63;;
1262;SDS011;62267;50.112;8.704;2023-07-29T05:56:06;8.80;;;5.90;;
1262;SDS011;62267;50.112;8.704;2023-07-29T05:58:33;6.87;;;6.27;;
1262;SDS011;62267;50.112;8.704;2023-07-29T06:01:00;7.00;;;6.40;;
1262;SDS011;62267;50.112;8.704;2023-07-29T06:03:28;6.60;;;6.00;;
1262;SDS011;62267;50.112;8.704;2023-07-29T06:05:55;6.37;;;5.77;;
1262;SDS011;62267;50.112;8.704;2023-07-29T06:08:23;6.70;;;5.80;;
1262;SDS011;62267;50.112;8.704;2023-07-29T06:10:50;7.30;;;6.63;;
1262;SDS011;62267;50.112;8.704;2023-07-29T06:13:17;6.40;;;5.80;;
1262;SDS011;62267;50.112;8.704;2023-07-29T06:15:44;6.93;;;6.23;;
1262;SDS011;62267;50.112;8.704;2023-07-29T06:18:12;7.80;;;6.40;;
1262;SDS011;62267;50.112;8.704;2023-07-29T06:20:39;7.17;;;6.47;;
1262;SDS011;62267;50.112;8.704;2023-07-29T06:23:07;6.67;;;6.10;;
1262;SDS011;62267;50.112;8.704;2023-07-29T06:25:34;7.53;;;6.23;;
1262;SDS011;62267;50.112;8.704;2023-07-29T06:28:02;8.10;;;7.40;;
1262;SDS011;62267;50.112;8.704;2023-07-29T06:30:29;7.10;;;6.50;;
1262;SDS011;62267;50.112;8.704;2023-07-29T06:32:56;8.03;;;7.33;;
1262;SDS011;62267;50.112;8.704;2023-07-29T06:35:24;8.83;;;6.77;;
1262;SDS011;62267;50.112;8.704;2023-07-29T06:37:51;8.47;;;7.57;;
1262;SDS011;62267;50.112;8.704;2023-07-29T06:40:18;10.40;;;7.80;;
1262;SDS011;62267;50.112;8.704;2023-07-29T06:42:45;7.30;;;6.70;;
1262;SDS011;62267;50.112;8.704;2023-07-29T06:45:13;6.57;;;5.70;;
1262;SDS011;62267;50.112;8.704;2023-07-29T06:47:41;6.17;;;5.70;;
1262;SDS011;62267;50.112;8.704;2023-07-29T06:50:09;6.03;;;5.33;;
1262;SDS011;62267;50.112;8.704;2023-07-29T06:52:36;4.90;;;4.47;;
1262;SDS011;62267;50.112;8.704;2023-07-29T06:55:04;5.03;;;4.63;;
1262;SDS011;62267;50.112;8.704;2023-07-29T06:57:32;7.07;;;5.10;;
1262;SDS011;62267;50.112;8.704;2023-07-29T06:59:59;5.97;;;5.43;;
1262;SDS011;62267;50.112;8.704;2023-07-29T07:02:26;7.83;;;6.33;;
1262;SDS011;62267;50.112;8.704;2023-07-29T07:04:54;6.20;;;5.70;;
1262;SDS011;62267;50.112;8.704;2023-07-29T07:07:21;6.37;;;5.77;;
1262;SDS011;62267;50.112;8.704;2023-07-29T07:09:48;7.17;;;6.57;;
1262;SDS011;62267;50.112;8.704;2023-07-29T07:12:15;8.00;;;7.30;;
1262;SDS011;62267;50.112;8.704;2023-07-29T07:14:42;9.17;;;8.37;;
1262;SDS011;62267;50.112;8.704;2023-07-29T07:17:10;8.77;;;7.97;;
1262;SDS011;62267;50.112;8.704;2023-07-29T07:19:39;10.53;;;9.43;;
1262;SDS011;62267;50.112;8.704;2023-07-29T07:22:06;10.03;;;8.30;;
1262;SDS011;62267;50.112;8.704;2023-07-29T07:24:33;10.50;;;9.50;;
1262;SDS011;62267;50.112;8.704;2023-07-29T07:27:01;9.40;;;8.60;;
1262;SDS011;62267;50.112;8.704;2023-07-29T07:29:29;10.03;;;9.23;;
1262;SDS011;62267;50.112;8.704;2023-07-29T07:31:57;9.37;;;8.57;;
1262;SDS011;62267;50.112;8.704;2023-07-29T07:34:24;11.63;;;10.60;;
1262;SDS011;62267;50.112;8.704;2023-07-29T07:36:52;9.80;;;9.00;;
1262;SDS011;62267;50.112;8.704;2023-07-29T07:39:19;8.83;;;8.00;;
1262;SDS011;62267;50.112;8.704;2023-07-29T07:41:46;9.43;;;8.43;;
1262;SDS011;62267;50.112;8.704;2023-07-29T07:44:13;10.03;;;8.90;;
1262;SDS011;62267;50.112;8.704;2023-07-29T07:46:44;11.00;;;10.00;;
1262;SDS011;62267;50.112;8.704;2023-07-29T07:49:11;10.10;;;9.10;;
1262;SDS011;62267;50.112;8.704;2023-07-29T07:51:39;10.10;;;9.20;;
1262;SDS011;62267;50.112;8.704;2023-07-29T07:54:06;11.27;;;10.20;;
1262;SDS011;62267;50.112;8.704;2023-07-29T07:56:33;10.00;;;9.00;;
1262;SDS011;62267;50.112;8.704;2023-07-29T07:59:01;9.90;;;9.10;;
1262;SDS011;62267;50.112;8.704;2023-07-29T08:01:33;11.93;;;10.47;;
1262;SDS011;62267;50.112;8.704;2023-07-29T08:04:02;14.77;;;11.27;;
1262;SDS011;62267;50.112;8.704;2023-07-29T08:06:29;11.57;;;10.50;;
1262;SDS011;62267;50.112;8.704;2023-07-29T08:08:57;10.90;;;9.60;;
1262;SDS011;62267;50.112;8.704;2023-07-29T08:11:24;11.67;;;10.47;;
1262;SDS011;62267;50.112;8.704;2023-07-29T08:13:52;11.03;;;10.03;;
1262;SDS011;62267;50.112;8.704;2023-07-29T08:16:19;10.00;;;9.20;;
1262;SDS011;62267;50.112;8.704;2023-07-29T08:18:46;10.70;;;9.90;;
1262;SDS011;62267;50.112;8.704;2023-07-29T08:21:13;11.17;;;9.73;;
1262;SDS011;62267;50.112;8.704;2023-07-29T08:23:41;9.70;;;8.80;;
1262;SDS011;62267;50.112;8.704;2023-07-29T08:26:08;10.43;;;9.57;;
1262;SDS011;62267;50.112;8.704;2023-07-29T08:28:36;9.87;;;9.07;;
1262;SDS011;62267;50.112;8.704;2023-07-29T08:31:04;8.97;;;8.17;;
1262;SDS011;62267;50.112;8.704;2023-07-29T08:33:31;9.17;;;8.37;;
1262;SDS011;62267;50.112;8.704;2023-07-29T08:36:00;8.40;;;7.63;;
1262;SDS011;62267;50.112;8.704;2023-07-29T08:38:27;9.20;;;8.40;;
1262;SDS011;62267;50.112;8.704;2023-07-29T08:43:47;7.70;;;6.97;;
1262;SDS011;62267;50.112;8.704;2023-07-29T08:46:17;7.13;;;6.60;;
1262;SDS011;62267;50.112;8.704;2023-07-29T08:48:45;7.83;;;7.23;;
1262;SDS011;62267;50.112;8.704;2023-07-29T08:51:13;6.33;;;5.83;;
1262;SDS011;62267;50.112;8.704;2023-07-29T08:53:41;5.70;;;5.30;;
1262;SDS011;62267;50.112;8.704;2023-07-29T08:56:08;7.17;;;6.00;;
1262;SDS011;62267;50.112;8.704;2023-07-29T08:58:36;5.83;;;5.33;;
1262;SDS011;62267;50.112;8.704;2023-07-29T09:01:03;6.27;;;5.43;;
1262;SDS011;62267;50.112;8.704;2023-07-29T09:03:30;6.40;;;5.13;;
1262;SDS011;62267;50.112;8.704;2023-07-29T09:05:58;6.33;;;5.93;;
1262;SDS011;62267;50.112;8.704;2023-07-29T09:08:28;5.43;;;4.93;;
1262;SDS011;62267;50.112;8.704;2023-07-29T09:10:56;5.67;;;5.27;;
1262;SDS011;62267;50.112;8.704;2023-07-29T09:13:23;5.00;;;4.57;;
1262;SDS011;62267;50.112;8.704;2023-07-29T09:15:55;4.40;;;4.10;;
1262;SDS011;62267;50.112;8.704;2023-07-29T09:18:22;4.43;;;4.03;;
1262;SDS011;62267;50.112;8.704;2023-07-29T09:20:50;3.57;;;3.27;;
1262;SDS011;62267;50.112;8.704;2023-07-29T09:23:17;4.13;;;3.83;;
1262;SDS011;62267;50.112;8.704;2023-07-29T09:25:47;4.63;;;4.17;;
1262;SDS011;62267;50.112;8.704;2023-07-29T09:28:15;3.83;;;3.40;;
1262;SDS011;62267;50.112;8.704;2023-07-29T09:30:45;3.17;;;2.87;;
1262;SDS011;62267;50.112;8.704;2023-07-29T09:33:12;3.33;;;3.03;;
1262;SDS011;62267;50.112;8.704;2023-07-29T09:35:40;3.27;;;2.97;;
1262;SDS011;62267;50.112;8.704;2023-07-29T09:38:07;2.83;;;2.63;;
1262;SDS011;62267;50.112;8.704;2023-07-29T09:40:35;3.00;;;2.03;;
1262;SDS011;62267;50.112;8.704;2023-07-29T09:43:03;2.77;;;2.57;;
1262;SDS011;62267;50.112;8.704;2023-07-29T09:45:32;2.43;;;2.20;;
1262;SDS011;62267;50.112;8.704;2023-07-29T09:48:00;2.83;;;2.73;;
1262;SDS011;62267;50.112;8.704;2023-07-29T09:50:27;2.70;;;2.50;;
1262;SDS011;62267;50.112;8.704;2023-07-29T09:52:55;2.50;;;2.40;;
1262;SDS011;62267;50.112;8.704;2023-07-29T09:55:24;4.30;;;2.57;;
1262;SDS011;62267;50.112;8.704;2023-07-29T09:57:53;4.50;;;2.70;;
1262;SDS011;62267;50.112;8.704;2023-07-29T10:00:20;2.93;;;2.73;;
1262;SDS011;62267;50.112;8.704;2023-07-29T10:02:48;3.23;;;3.03;;
1262;SDS011;62267;50.112;8.704;2023-07-29T10:05:16;2.53;;;2.37;;
1262;SDS011;62267;50.112;8.704;2023-07-29T10:07:43;2.77;;;2.57;;
1262;SDS011;62267;50.112;8.704;2023-07-29T10:10:11;2.50;;;2.40;;
1262;SDS011;62267;50.112;8.704;2023-07-29T10:12:39;2.50;;;2.23;;
1262;SDS011;62267;50.112;8.704;2023-07-29T10:15:09;3.00;;;2.80;;
1262;SDS011;62267;50.112;8.704;2023-07-29T10:17:37;3.13;;;2.93;;
1262;SDS011;62267;50.112;8.704;2023-07-29T10:20:07;2.87;;;2.67;;
1262;SDS011;62267;50.112;8.704;2023-07-29T10:22:41;3.07;;;2.87;;
1262;SDS011;62267;50.112;8.704;2023-07-29T10:25:10;2.50;;;2.30;;
1262;SDS011;62267;50.112;8.704;2023-07-29T10:27:46;3.20;;;3.00;;
1262;SDS011;62267;50.112;8.704;2023-07-29T10:30:14;3.00;;;2.80;;
1262;SDS011;62267;50.112;8.704;2023-07-29T10:32:42;2.90;;;2.80;;
1262;SDS011;62267;50.112;8.704;2023-07-29T10:35:11;4.60;;;2.83;;
1262;SDS011;62267;50.112;8.704;2023-07-29T10:37:39;3.10;;;2.90;;
1262;SDS011;62267;50.112;8.704;2023-07-29T10:40:07;2.73;;;2.63;;
1262;SDS011;62267;50.112;8.704;2023-07-29T10:42:35;3.20;;;3.00;;
1262;SDS011;62267;50.112;8.704;2023-07-29T10:45:18;2.80;;;2.60;;
1262;SDS011;62267;50.112;8.704;2023-07-29T10:47:47;3.00;;;2.80;;
1262;SDS011;62267;50.112;8.704;2023-07-29T10:50:17;3.00;;;2.80;;
1262;SDS011;62267;50.112;8.704;2023-07-29T10:52:46;3.67;;;3.10;;
1262;SDS011;62267;50.112;8.704;2023-07-29T10:57:52;3.30;;;2.93;;
1262;SDS011;62267;50.112;8.704;2023-07-29T11:00:19;3.27;;;3.07;;
1262;SDS011;62267;50.112;8.704;2023-07-29T11:03:00;3.30;;;3.00;;
1262;SDS011;62267;50.112;8.704;2023-07-29T11:05:42;2.93;;;2.73;;
1262;SDS011;62267;50.112;8.704;2023-07-29T11:08:23;3.23;;;2.90;;
1262;SDS011;62267;50.112;8.704;2023-07-29T11:10:57;3.30;;;3.00;;
1262;SDS011;62267;50.112;8.704;2023-07-29T11:13:28;2.90;;;2.70;;
1262;SDS011;62267;50.112;8.704;2023-07-29T11:15:56;3.07;;;2.87;;
1262;SDS011;62267;50.112;8.704;2023-07-29T11:18:28;3.20;;;2.90;;
1262;SDS011;62267;50.112;8.704;2023-07-29T11:20:56;3.10;;;2.90;;
1262;SDS011;62267;50.112;8.704;2023-07-29T11:23:28;2.80;;;2.70;;
1262;SDS011;62267;50.112;8.704;2023-07-29T11:25:56;3.50;;;3.30;;
1262;SDS011;62267;50.112;8.704;2023-07-29T11:28:25;4.03;;;3.43;;
1262;SDS011;62267;50.112;8.704;2023-07-29T11:30:53;3.83;;;3.17;;
1262;SDS011;62267;50.112;8.704;2023-07-29T11:33:21;4.27;;;3.20;;
1262;SDS011;62267;50.112;8.704;2023-07-29T11:35:49;3.53;;;3.33;;
1262;SDS011;62267;50.112;8.704;2023-07-29T11:38:16;3.70;;;3.40;;
1262;SDS011;62267;50.112;8.704;2023-07-29T11:40:58;3.47;;;3.17;;
1262;SDS011;62267;50.112;8.704;2023-07-29T11:43:25;3.20;;;2.90;;
1262;SDS011;62267;50.112;8.704;2023-07-29T11:45:53;3.07;;;2.87;;
1262;SDS011;62267;50.112;8.704;2023-07-29T11:48:27;3.90;;;3.13;;
1262;SDS011;62267;50.112;8.704;2023-07-29T11:50:55;3.53;;;3.23;;
1262;SDS011;62267;50.112;8.704;2023-07-29T11:53:22;3.60;;;3.30;;
1262;SDS011;62267;50.112;8.704;2023-07-29T11:55:52;3.30;;;3.10;;
1262;SDS011;62267;50.112;8.704;2023-07-29T11:58:20;3.73;;;3.37;;
1262;SDS011;62267;50.112;8.704;2023-07-29T12:00:48;2.93;;;2.73;;
1262;SDS011;62267;50.112;8.704;2023-07-29T12:03:16;3.93;;;3.63;;
1262;SDS011;62267;50.112;8.704;2023-07-29T12:05:44;3.53;;;3.30;;
1262;SDS011;62267;50.112;8.704;2023-07-29T12:08:11;3.07;;;2.87;;
1262;SDS011;62267;50.112;8.704;2023-07-29T12:10:39;3.57;;;3.37;;
1262;SDS011;62267;50.112;8.704;2023-07-29T12:13:07;4.00;;;3.60;;
1262;SDS011;62267;50.112;8.704;2023-07-29T12:15:37;3.23;;;3.00;;
1262;SDS011;62267;50.112;8.704;2023-07-29T12:18:06;3.27;;;3.07;;
1262;SDS011;62267;50.112;8.704;2023-07-29T12:20:33;2.83;;;2.73;;
1262;SDS011;62267;50.112;8.704;2023-07-29T12:23:00;3.50;;;3.30;;
1262;SDS011;62267;50.112;8.704;2023-07-29T12:25:29;3.10;;;2.90;;
1262;SDS011;62267;50.112;8.704;2023-07-29T12:27:56;3.17;;;2.93;;
1262;SDS011;62267;50.112;8.704;2023-07-29T12:30:23;3.63;;;3.10;;
1262;SDS011;62267;50.112;8.704;2023-07-29T12:32:52;3.40;;;3.10;;
1262;SDS011;62267;50.112;8.704;2023-07-29T12:35:19;4.20;;;3.70;;
1262;SDS011;62267;50.112;8.704;2023-07-29T12:37:46;3.23;;;3.03;;
1262;SDS011;62267;50.112;8.704;2023-07-29T12:40:20;5.10;;;3.83;;
1262;SDS011;62267;50.112;8.704;2023-07-29T12:42:48;4.33;;;3.43;;
1262;SDS011;62267;50.112;8.704;2023-07-29T12:45:16;3.57;;;3.10;;
1262;SDS011;62267;50.112;8.704;2023-07-29T12:47:44;3.40;;;3.10;;
1262;SDS011;62267;50.112;8.704;2023-07-29T12:50:11;3.00;;;2.80;;
1262;SDS011;62267;50.112;8.704;2023-07-29T12:52:38;3.10;;;2.90;;
1262;SDS011;62267;50.112;8.704;2023-07-29T12:55:06;3.73;;;3.33;;
1262;SDS011;62267;50.112;8.704;2023-07-29T12:57:35;3.43;;;3.23;;
1262;SDS011;62267;50.112;8.704;2023-07-29T13:00:03;4.63;;;3.10;;
1262;SDS011;62267;50.112;8.704;2023-07-29T13:02:31;3.43;;;3.23;;
1262;SDS011;62267;50.112;8.704;2023-07-29T13:04:58;2.97;;;2.77;;
1262;SDS011;62267;50.112;8.704;2023-07-29T13:07:26;3.70;;;3.40;;
1262;SDS011;62267;50.112;8.704;2023-07-29T13:09:53;4.73;;;2.83;;
1262;SDS011;62267;50.112;8.704;2023-07-29T13:12:20;3.13;;;2.93;;
1262;SDS011;62267;50.112;8.704;2023-07-29T13:14:47;2.60;;;2.50;;
1262;SDS011;62267;50.112;8.704;2023-07-29T13:17:14;5.90;;;3.80;;
1262;SDS011;62267;50.112;8.704;2023-07-29T13:19:42;3.60;;;3.30;;
1262;SDS011;62267;50.112;8.704;2023-07-29T13:22:09;2.97;;;2.77;;
1262;SDS011;62267;50.112;8.704;2023-07-29T13:24:36;3.03;;;2.83;;
1262;SDS011;62267;50.112;8.704;2023-07-29T13:27:04;2.80;;;2.63;;
1262;SDS011;62267;50.112;8.704;2023-07-29T13:29:31;5.30;;;3.50;;
1262;SDS011;62267;50.112;8.704;2023-07-29T13:31:58;3.13;;;2.60;;
1262;SDS011;62267;50.112;8.704;2023-07-29T13:34:26;3.60;;;3.30;;
1262;SDS011;62267;50.112;8.704;2023-07-29T13:36:53;3.10;;;2.90;;
1262;SDS011;62267;50.112;8.704;2023-07-29T13:39:20;2.53;;;2.43;;
1262;SDS011;62267;50.112;8.704;2023-07-29T13:41:48;5.20;;;4.70;;
1262;SDS011;62267;50.112;8.704;2023-07-29T13:44:15;4.07;;;3.60;;
1262;SDS011;62267;50.112;8.704;2023-07-29T13:46:42;3.90;;;3.50;;
1262;SDS011;62267;50.112;8.704;2023-07-29T13:49:09;3.00;;;2.80;;
1262;SDS011;62267;50.112;8.704;2023-07-29T13:51:37;3.33;;;3.13;;
1262;SDS011;62267;50.112;8.704;2023-07-29T13:54:05;6.13;;;3.30;;
1262;SDS011;62267;50.112;8.704;2023-07-29T13:56:32;4.00;;;3.13;;
1262;SDS011;62267;50.112;8.704;2023-07-29T13:59:00;4.87;;;3.10;;
1262;SDS011;62267;50.112;8.704;2023-07-29T14:01:27;3.40;;;3.17;;
1262;SDS011;62267;50.112;8.704;2023-07-29T14:03:54;3.80;;;3.53;;
1262;SDS011;62267;50.112;8.704;2023-07-29T14:06:21;5.60;;;3.37;;
1262;SDS011;62267;50.112;8.704;2023-07-29T14:09:09;3.37;;;3.17;;
1262;SDS011;62267;50.112;8.704;2023-07-29T14:11:36;3.00;;;2.80;;
1262;SDS011;62267;50.112;8.704;2023-07-29T14:14:05;2.80;;;2.60;;
1262;SDS011;62267;50.112;8.704;2023-07-29T14:16:32;3.70;;;3.40;;
1262;SDS011;62267;50.112;8.704;2023-07-29T14:18:59;2.97;;;2.77;;
1262;SDS011;62267;50.112;8.704;2023-07-29T14:21:27;3.83;;;3.50;;
1262;SDS011;62267;50.112;8.704;2023-07-29T14:23:54;2.80;;;2.60;;
1262;SDS011;62267;50.112;8.704;2023-07-29T14:26:21;2.83;;;2.53;;
1262;SDS011;62267;50.112;8.704;2023-07-29T14:28:49;2.93;;;2.73;;
1262;SDS011;62267;50.112;8.704;2023-07-29T14:31:16;3.27;;;3.07;;
1262;SDS011;62267;50.112;8.704;2023-07-29T14:33:44;2.93;;;2.73;;
1262;SDS011;62267;50.112;8.704;2023-07-29T14:36:11;3.23;;;2.93;;
1262;SDS011;62267;50.112;8.704;2023-07-29T14:38:38;2.70;;;2.57;;
1262;SDS011;62267;50.112;8.704;2023-07-29T14:41:05;3.07;;;2.87;;
1262;SDS011;62267;50.112;8.704;2023-07-29T14:43:33;3.70;;;3.17;;
1262;SDS011;62267;50.112;8.704;2023-07-29T14:46:01;3.40;;;3.20;;
1262;SDS011;62267;50.112;8.704;2023-07-29T14:48:29;3.20;;;2.93;;
1262;SDS011;62267;50.112;8.704;2023-07-29T14:50:56;3.33;;;3.13;;
1262;SDS011;62267;50.112;8.704;2023-07-29T14:53:23;3.03;;;2.83;;
1262;SDS011;62267;50.112;8.704;2023-07-29T14:55:51;3.07;;;2.87;;
1262;SDS011;62267;50.112;8.704;2023-07-29T14:58:19;3.50;;;3.30;;
1262;SDS011;62267;50.112;8.704;2023-07-29T15:00:46;3.50;;;3.20;;
1262;SDS011;62267;50.112;8.704;2023-07-29T15:03:14;3.50;;;3.20;;
1262;SDS011;62267;50.112;8.704;2023-07-29T15:05:41;3.60;;;2.73;;
1262;SDS011;62267;50.112;8.704;2023-07-29T15:08:08;3.00;;;2.80;;
1262;SDS011;62267;50.112;8.704;2023-07-29T15:10:36;3.63;;;3.33;;
1262;SDS011;62267;50.112;8.704;2023-07-29T15:13:03;3.00;;;2.80;;
1262;SDS011;62267;50.112;8.704;2023-07-29T15:15:30;2.80;;;2.70;;
1262;SDS011;62267;50.112;8.704;2023-07-29T15:17:57;2.50;;;2.30;;
1262;SDS011;62267;50.112;8.704;2023-07-29T15:20:25;3.17;;;2.97;;
1262;SDS011;62267;50.112;8.704;2023-07-29T15:22:52;4.43;;;3.27;;